createdAt,value
2022-08-25T00:01:56.824Z,3.20
2022-08-25T00:04:58.124Z,2.47
2022-08-25T00:07:59.991Z,2.20
2022-08-25T00:11:03.720Z,2.90
2022-08-25T00:14:07.931Z,2.40
2022-08-25T00:17:09.243Z,3.17
2022-08-25T00:20:10.797Z,2.20
2022-08-25T00:23:12.073Z,2.67
2022-08-25T00:26:14.958Z,2.72
2022-08-25T00:29:16.401Z,2.60
2022-08-25T00:32:18.297Z,2.75
2022-08-25T00:35:19.601Z,2.60
2022-08-25T00:38:20.907Z,2.20
2022-08-25T00:41:23.618Z,2.58
2022-08-25T00:44:26.500Z,2.30
2022-08-25T00:47:27.847Z,2.65
2022-08-25T00:50:30.615Z,2.25
2022-08-25T00:53:32.105Z,2.13
2022-08-25T00:56:34.849Z,2.67
2022-08-25T00:59:36.485Z,2.10
2022-08-25T01:02:38.458Z,2.70
2022-08-25T01:05:41.480Z,2.65
2022-08-25T01:08:42.822Z,2.40
2022-08-25T01:11:45.360Z,2.22
2022-08-25T01:14:46.709Z,2.47
2022-08-25T01:17:49.928Z,2.83
2022-08-25T01:20:52.474Z,2.60
2022-08-25T01:23:55.617Z,2.70
2022-08-25T01:26:57.893Z,2.38
2022-08-25T01:29:59.223Z,2.25
2022-08-25T01:33:03.063Z,2.75
2022-08-25T01:39:06.800Z,2.40
2022-08-25T01:42:11.399Z,2.40
2022-08-25T01:45:12.738Z,2.13
2022-08-25T01:48:14.484Z,2.40
2022-08-25T01:51:16.197Z,2.90
2022-08-25T01:54:17.475Z,2.10
2022-08-25T01:57:18.872Z,2.38
2022-08-25T02:00:21.217Z,2.40
2022-08-25T02:03:23.336Z,3.47
2022-08-25T02:12:32.140Z,2.85
2022-08-25T02:15:33.517Z,2.95
2022-08-25T02:18:35.077Z,2.30
2022-08-25T02:21:36.497Z,2.60
2022-08-25T02:24:37.950Z,2.92
2022-08-25T02:27:39.247Z,3.03
2022-08-25T02:30:42.403Z,2.28
2022-08-25T02:33:43.966Z,2.33
2022-08-25T02:36:45.342Z,2.67
2022-08-25T02:39:46.778Z,3.13
2022-08-25T02:42:48.421Z,3.25
2022-08-25T02:45:49.718Z,3.20
2022-08-25T02:48:52.839Z,2.88
2022-08-25T02:51:54.626Z,2.63
2022-08-25T02:54:55.918Z,2.95
2022-08-25T02:57:57.184Z,2.50
2022-08-25T03:00:58.514Z,2.65
2022-08-25T03:04:00.341Z,3.53
2022-08-25T03:07:01.686Z,2.65
2022-08-25T03:10:07.904Z,3.03
2022-08-25T03:13:09.200Z,3.13
2022-08-25T03:16:12.359Z,3.10
2022-08-25T03:19:14.192Z,2.70
2022-08-25T03:22:15.458Z,2.67
2022-08-25T03:25:35.242Z,3.38
2022-08-25T03:28:36.538Z,3.03
2022-08-25T03:31:38.876Z,3.53
2022-08-25T03:34:40.293Z,2.90
2022-08-25T03:37:41.635Z,3.45
2022-08-25T03:40:43.293Z,3.22
2022-08-25T03:43:44.623Z,3.20
2022-08-25T03:46:51.928Z,3.50
2022-08-25T03:49:53.218Z,2.88
2022-08-25T03:52:55.351Z,3.65
2022-08-25T03:55:57.605Z,3.35
2022-08-25T03:58:59.002Z,3.60
2022-08-25T04:02:00.338Z,2.40
2022-08-25T04:05:01.870Z,3.22
2022-08-25T04:08:03.393Z,2.60
2022-08-25T04:11:05.906Z,3.53
2022-08-25T04:14:07.289Z,2.75
2022-08-25T04:17:08.575Z,2.83
2022-08-25T04:20:10.676Z,2.80
2022-08-25T04:23:15.469Z,2.97
2022-08-25T04:26:22.162Z,3.67
2022-08-25T04:29:24.614Z,2.42
2022-08-25T04:32:25.921Z,3.60
2022-08-25T04:35:27.198Z,3.10
2022-08-25T04:38:28.528Z,2.70
2022-08-25T04:41:31.288Z,3.67
2022-08-25T04:44:32.646Z,2.55
2022-08-25T04:47:36.702Z,2.70
2022-08-25T04:53:39.478Z,2.60
2022-08-25T04:56:41.242Z,3.25
2022-08-25T04:59:42.521Z,3.65
2022-08-25T05:02:43.811Z,2.88
2022-08-25T05:05:45.137Z,3.60
2022-08-25T05:08:46.592Z,3.53
2022-08-25T05:11:49.041Z,3.88
2022-08-25T05:14:52.802Z,3.35
2022-08-25T05:17:56.070Z,3.25
2022-08-25T05:21:01.248Z,3.60
2022-08-25T05:24:02.695Z,3.67
2022-08-25T05:27:04.077Z,2.65
2022-08-25T05:30:06.140Z,3.50
2022-08-25T05:33:08.154Z,3.90
2022-08-25T05:36:10.535Z,3.20
2022-08-25T05:39:11.919Z,2.92
2022-08-25T05:42:13.780Z,2.95
2022-08-25T05:45:20.422Z,3.60
2022-08-25T05:48:22.469Z,4.05
2022-08-25T05:51:23.824Z,3.30
2022-08-25T05:54:25.432Z,3.20
2022-08-25T05:57:26.803Z,3.45
2022-08-25T06:00:28.285Z,3.35
2022-08-25T06:03:29.621Z,3.08
2022-08-25T06:06:30.981Z,3.15
2022-08-25T06:09:32.302Z,3.17
2022-08-25T06:12:36.041Z,3.13
2022-08-25T06:15:37.372Z,3.20
2022-08-25T06:18:38.907Z,3.28
2022-08-25T06:21:40.559Z,3.03
2022-08-25T06:24:41.841Z,3.53
2022-08-25T06:27:43.122Z,2.78
2022-08-25T06:30:44.517Z,3.08
2022-08-25T06:33:45.866Z,3.30
2022-08-25T06:36:48.926Z,3.15
2022-08-25T06:39:51.263Z,3.30
2022-08-25T06:42:52.696Z,3.30
2022-08-25T06:45:54.042Z,3.33
2022-08-25T06:48:56.702Z,3.10
2022-08-25T06:51:58.013Z,2.83
2022-08-25T06:54:59.425Z,3.22
2022-08-25T06:58:00.878Z,2.88
2022-08-25T07:01:12.333Z,3.10
2022-08-25T07:04:16.638Z,3.28
2022-08-25T07:07:17.959Z,3.00
2022-08-25T07:10:19.541Z,3.30
2022-08-25T07:13:21.051Z,3.13
2022-08-25T07:16:22.532Z,2.97
2022-08-25T07:19:25.054Z,3.50
2022-08-25T07:22:26.410Z,3.03
2022-08-25T07:25:27.725Z,3.35
2022-08-25T07:28:29.044Z,3.22
2022-08-25T07:31:31.517Z,3.08
2022-08-25T07:34:52.340Z,3.08
2022-08-25T07:37:58.234Z,2.85
2022-08-25T07:41:03.220Z,2.95
2022-08-25T07:44:06.319Z,3.13
2022-08-25T07:47:07.758Z,2.88
2022-08-25T07:50:09.988Z,2.90
2022-08-25T07:53:12.590Z,3.10
2022-08-25T07:56:15.465Z,3.13
2022-08-25T07:59:17.257Z,3.25
2022-08-25T08:02:19.454Z,2.90
2022-08-25T08:05:21.262Z,2.92
2022-08-25T08:08:25.182Z,2.67
2022-08-25T08:11:43.757Z,2.83
2022-08-25T08:14:47.254Z,2.85
2022-08-25T08:17:48.603Z,2.60
2022-08-25T08:20:51.562Z,3.10
2022-08-25T08:23:58.543Z,3.03
2022-08-25T08:27:00.281Z,2.85
2022-08-25T08:30:02.037Z,2.53
2022-08-25T08:33:19.650Z,2.83
2022-08-25T08:36:21.931Z,2.83
2022-08-25T08:39:27.389Z,3.00
2022-08-25T08:42:37.857Z,2.50
2022-08-25T08:45:50.256Z,2.65
2022-08-25T08:48:57.448Z,2.85
2022-08-25T08:52:00.891Z,2.70
2022-08-25T08:55:05.629Z,2.60
2022-08-25T08:58:31.177Z,2.63
2022-08-25T09:01:34.518Z,3.03
2022-08-25T09:04:39.283Z,2.78
2022-08-25T09:07:43.773Z,2.72
2022-08-25T09:10:57.873Z,3.00
2022-08-25T09:14:05.708Z,3.42
2022-08-25T09:17:14.095Z,3.10
2022-08-25T09:20:34.823Z,3.10
2022-08-25T09:23:54.637Z,2.88
2022-08-25T09:27:05.886Z,3.03
2022-08-25T09:30:18.382Z,3.05
2022-08-25T09:33:22.022Z,2.58
2022-08-25T09:36:23.918Z,2.28
2022-08-25T09:39:25.281Z,2.50
2022-08-25T09:42:48.164Z,2.35
2022-08-25T09:46:02.295Z,2.58
2022-08-25T09:49:11.921Z,2.30
2022-08-25T09:55:14.610Z,2.78
2022-08-25T09:58:22.247Z,2.42
2022-08-25T10:01:24.496Z,2.30
2022-08-25T10:04:40.027Z,2.60
2022-08-25T10:07:51.979Z,2.65
2022-08-25T10:10:54.941Z,2.13
2022-08-25T10:14:04.983Z,2.50
2022-08-25T10:17:17.449Z,3.33
2022-08-25T10:20:21.449Z,2.30
2022-08-25T10:23:26.900Z,2.50
2022-08-25T10:26:29.132Z,2.65
2022-08-25T10:29:38.607Z,2.47
2022-08-25T10:33:02.899Z,2.50
2022-08-25T10:36:10.073Z,2.63
2022-08-25T10:39:31.934Z,2.55
2022-08-25T10:42:40.812Z,2.30
2022-08-25T10:45:48.907Z,2.30
2022-08-25T10:48:55.152Z,2.53
2022-08-25T10:52:10.834Z,2.58
2022-08-25T10:55:17.575Z,2.30
2022-08-25T10:58:18.900Z,2.50
2022-08-25T11:01:43.589Z,2.33
2022-08-25T11:04:52.321Z,2.50
2022-08-25T11:08:16.998Z,2.60
2022-08-25T11:11:25.699Z,2.65
2022-08-25T11:14:34.582Z,2.60
2022-08-25T11:17:46.094Z,2.25
2022-08-25T11:23:58.085Z,2.60
2022-08-25T11:26:59.612Z,2.33
2022-08-25T11:30:07.971Z,2.50
2022-08-25T11:33:12.154Z,2.33
2022-08-25T11:36:13.517Z,2.45
2022-08-25T11:39:33.116Z,2.90
2022-08-25T11:43:08.426Z,2.92
2022-08-25T11:46:15.848Z,2.47
2022-08-25T11:49:29.847Z,2.97
2022-08-25T11:52:34.697Z,2.85
2022-08-25T11:55:53.696Z,2.15
2022-08-25T11:58:55.009Z,2.40
2022-08-25T12:01:56.351Z,2.30
2022-08-25T12:04:57.852Z,2.97
2022-08-25T12:08:23.592Z,3.10
2022-08-25T12:11:41.649Z,2.40
2022-08-25T12:14:43.769Z,2.20
2022-08-25T12:18:08.891Z,2.95
2022-08-25T12:21:10.708Z,2.30
2022-08-25T12:24:14.129Z,2.50
2022-08-25T12:27:15.393Z,2.30
2022-08-25T12:30:22.142Z,2.72
2022-08-25T12:33:26.343Z,3.20
2022-08-25T12:36:33.169Z,2.50
2022-08-25T12:39:36.640Z,2.08
2022-08-25T12:42:39.546Z,2.53
2022-08-25T12:45:42.739Z,2.40
2022-08-25T12:48:55.984Z,2.30
2022-08-25T12:52:28.123Z,2.13
2022-08-25T12:55:29.579Z,2.25
2022-08-25T12:59:00.779Z,2.40
2022-08-25T13:02:18.035Z,2.30
2022-08-25T13:05:26.178Z,2.13
2022-08-25T13:08:48.232Z,2.25
2022-08-25T13:12:08.369Z,2.47
2022-08-25T13:15:13.896Z,2.55
2022-08-25T13:18:35.688Z,2.20
2022-08-25T13:21:38.860Z,2.53
2022-08-25T13:24:42.158Z,3.00
2022-08-25T13:27:47.796Z,3.13
2022-08-25T13:31:01.123Z,2.17
2022-08-25T13:34:06.803Z,2.10
2022-08-25T13:37:29.728Z,2.40
2022-08-25T13:40:34.441Z,2.85
2022-08-25T13:43:39.376Z,2.40
2022-08-25T13:46:42.769Z,2.42
2022-08-25T13:49:46.510Z,2.40
2022-08-25T13:52:51.026Z,2.15
2022-08-25T13:55:53.808Z,2.35
2022-08-25T13:58:56.315Z,1.88
2022-08-25T14:01:59.896Z,2.03
2022-08-25T14:05:01.438Z,2.22
2022-08-25T14:08:16.088Z,2.30
2022-08-25T14:11:27.713Z,2.10
2022-08-25T14:14:31.014Z,2.22
2022-08-25T14:17:39.800Z,2.15
2022-08-25T14:20:52.950Z,2.20
2022-08-25T14:23:55.235Z,2.25
2022-08-25T14:26:56.623Z,2.17
2022-08-25T14:29:58.217Z,2.03
2022-08-25T14:33:00.402Z,2.10
2022-08-25T14:36:05.964Z,1.77
2022-08-25T14:39:08.833Z,2.00
2022-08-25T14:42:10.501Z,2.00
2022-08-25T14:45:12.278Z,1.92
2022-08-25T14:48:20.225Z,2.20
2022-08-25T14:51:21.799Z,1.90
2022-08-25T14:54:25.703Z,2.00
2022-08-25T14:57:26.990Z,2.10
2022-08-25T15:00:28.481Z,2.10
2022-08-25T15:03:31.817Z,2.03
2022-08-25T15:06:33.738Z,2.00
2022-08-25T15:09:35.058Z,2.17
2022-08-25T15:12:47.425Z,2.33
2022-08-25T15:15:52.558Z,2.00
2022-08-25T15:18:54.474Z,2.10
2022-08-25T15:21:58.080Z,2.50
2022-08-25T15:25:01.808Z,2.08
2022-08-25T15:28:05.064Z,2.20
2022-08-25T15:31:14.983Z,1.95
2022-08-25T15:34:16.310Z,2.53
2022-08-25T15:37:17.739Z,2.13
2022-08-25T15:40:19.745Z,2.20
2022-08-25T15:43:21.069Z,2.30
2022-08-25T15:46:23.871Z,2.15
2022-08-25T15:49:25.593Z,2.00
2022-08-25T15:52:44.561Z,1.92
2022-08-25T15:55:48.365Z,2.35
2022-08-25T15:58:54.111Z,2.00
2022-08-25T16:01:56.496Z,2.20
2022-08-25T16:04:57.842Z,1.83
2022-08-25T16:07:59.142Z,2.15
2022-08-25T16:11:00.499Z,2.03
2022-08-25T16:14:02.643Z,2.20
2022-08-25T16:17:05.365Z,1.80
2022-08-25T16:20:07.017Z,2.10
2022-08-25T16:23:15.732Z,2.03
2022-08-25T16:29:18.639Z,2.20
2022-08-25T16:32:21.484Z,2.15
2022-08-25T16:35:23.723Z,2.10
2022-08-25T16:38:25.075Z,2.55
2022-08-25T16:41:34.199Z,2.80
2022-08-25T16:44:38.912Z,2.50
2022-08-25T16:50:41.434Z,3.03
2022-08-25T16:54:01.840Z,2.22
2022-08-25T16:57:03.280Z,2.90
2022-08-25T17:00:06.183Z,2.33
2022-08-25T17:06:09.227Z,2.15
2022-08-25T17:09:11.877Z,2.30
2022-08-25T17:12:13.372Z,2.05
2022-08-25T17:15:21.480Z,2.28
2022-08-25T17:18:22.817Z,2.35
2022-08-25T17:21:29.144Z,2.47
2022-08-25T17:24:31.772Z,2.22
2022-08-25T17:27:34.697Z,2.22
2022-08-25T17:30:38.740Z,2.42
2022-08-25T17:33:40.289Z,2.03
2022-08-25T17:36:41.706Z,2.30
2022-08-25T17:39:43.548Z,2.35
2022-08-25T17:42:44.881Z,2.40
2022-08-25T17:45:46.584Z,2.90
2022-08-25T17:48:49.662Z,2.35
2022-08-25T17:51:51.219Z,2.50
2022-08-25T17:54:53.217Z,2.50
2022-08-25T17:57:56.001Z,2.40
2022-08-25T18:00:57.838Z,2.40
2022-08-25T18:03:59.991Z,2.88
2022-08-25T18:07:01.321Z,2.60
2022-08-25T18:10:07.828Z,2.97
2022-08-25T18:13:10.646Z,2.30
2022-08-25T18:16:12.299Z,2.63
2022-08-25T18:19:14.590Z,3.38
2022-08-25T18:22:16.649Z,2.40
2022-08-25T18:25:17.959Z,2.60
2022-08-25T18:28:19.577Z,2.33
2022-08-25T18:31:20.961Z,2.40
2022-08-25T18:34:23.951Z,2.33
2022-08-25T18:37:44.321Z,2.60
2022-08-25T18:40:46.238Z,2.30
2022-08-25T18:43:47.623Z,2.60
2022-08-25T18:46:49.456Z,3.28
2022-08-25T18:49:50.914Z,2.85
2022-08-25T18:52:55.093Z,2.42
2022-08-25T18:55:56.643Z,2.55
2022-08-25T18:58:58.336Z,2.30
2022-08-25T19:01:59.744Z,2.33
2022-08-25T19:05:07.779Z,2.67
2022-08-25T19:08:13.495Z,2.70
2022-08-25T19:11:22.062Z,2.45
2022-08-25T19:14:24.031Z,2.38
2022-08-25T19:17:27.797Z,2.80
2022-08-25T19:20:39.050Z,2.45
2022-08-25T19:23:40.798Z,2.45
2022-08-25T19:26:43.332Z,2.78
2022-08-25T19:29:44.877Z,2.90
2022-08-25T19:32:46.854Z,2.60
2022-08-25T19:35:49.328Z,2.78
2022-08-25T19:38:52.280Z,2.70
2022-08-25T19:41:53.707Z,2.92
2022-08-25T19:44:55.046Z,2.70
2022-08-25T19:47:56.459Z,2.80
2022-08-25T19:50:59.355Z,2.75
2022-08-25T19:54:01.803Z,2.60
2022-08-25T19:57:06.629Z,2.70
2022-08-25T20:00:13.477Z,2.75
2022-08-25T20:03:14.830Z,2.63
2022-08-25T20:06:16.260Z,2.80
2022-08-25T20:09:35.475Z,2.58
2022-08-25T20:12:39.228Z,2.40
2022-08-25T20:15:41.647Z,2.50
2022-08-25T20:18:42.976Z,2.92
2022-08-25T20:21:44.810Z,2.42
2022-08-25T20:24:51.091Z,2.45
2022-08-25T20:27:57.632Z,2.70
2022-08-25T20:30:59.147Z,2.75
2022-08-25T20:34:03.165Z,2.63
2022-08-25T20:37:04.955Z,2.67
2022-08-25T20:40:09.234Z,3.10
2022-08-25T20:43:12.165Z,2.70
2022-08-25T20:46:13.552Z,3.13
2022-08-25T20:49:14.854Z,2.75
2022-08-25T20:52:16.742Z,2.75
2022-08-25T20:55:19.079Z,2.28
2022-08-25T20:58:20.585Z,2.60
2022-08-25T21:01:37.264Z,2.70
2022-08-25T21:04:39.682Z,2.70
2022-08-25T21:07:50.523Z,3.40
2022-08-25T21:10:51.851Z,2.83
2022-08-25T21:13:53.792Z,2.97
2022-08-25T21:16:56.147Z,2.53
2022-08-25T21:19:57.489Z,2.90
2022-08-25T21:22:58.773Z,2.90
2022-08-25T21:26:00.319Z,2.92
2022-08-25T21:29:03.837Z,2.90
2022-08-25T21:32:05.447Z,2.80
2022-08-25T21:35:07.926Z,3.00
2022-08-25T21:38:09.460Z,3.00
2022-08-25T21:41:12.002Z,3.20
2022-08-25T21:44:14.071Z,2.85
2022-08-25T21:47:15.770Z,4.00
2022-08-25T21:50:22.695Z,3.00
2022-08-25T21:53:23.983Z,2.83
2022-08-25T21:56:26.292Z,2.92
2022-08-25T21:59:29.260Z,2.78
2022-08-25T22:02:30.610Z,3.25
2022-08-25T22:05:31.989Z,2.90
2022-08-25T22:08:34.151Z,2.80
2022-08-25T22:11:36.327Z,3.08
2022-08-25T22:14:38.365Z,2.70
2022-08-25T22:17:40.422Z,2.58
2022-08-25T22:20:41.715Z,3.75
2022-08-25T22:23:44.561Z,2.58
2022-08-25T22:26:47.423Z,2.92
2022-08-25T22:29:49.735Z,3.67
2022-08-25T22:32:52.310Z,2.92
2022-08-25T22:35:59.980Z,2.88
2022-08-25T22:39:01.956Z,3.50
2022-08-25T22:42:03.538Z,3.25
2022-08-25T22:45:04.963Z,2.78
2022-08-25T22:48:07.143Z,2.95
2022-08-25T22:51:13.387Z,2.95
2022-08-25T22:54:15.118Z,2.58
2022-08-25T22:57:16.692Z,2.67
2022-08-25T23:00:20.197Z,2.78
2022-08-25T23:03:21.718Z,3.28
2022-08-25T23:06:24.774Z,3.00
2022-08-25T23:09:26.448Z,3.25
2022-08-25T23:12:27.735Z,3.13
2022-08-25T23:15:29.102Z,2.95
2022-08-25T23:18:30.646Z,3.00
2022-08-25T23:22:07.594Z,2.97
2022-08-25T23:28:10.102Z,2.70
2022-08-25T23:31:12.700Z,3.40
2022-08-25T23:34:14.484Z,3.38
2022-08-25T23:37:16.202Z,2.90
2022-08-25T23:40:21.087Z,2.95
2022-08-25T23:43:24.059Z,3.50
2022-08-25T23:46:25.625Z,3.10
2022-08-25T23:49:26.959Z,3.47
2022-08-25T23:52:29.183Z,3.45
2022-08-25T23:55:33.575Z,2.92
2022-08-25T23:58:35.885Z,3.65
